Gillette, WY

5:35 AM MDT on August 20, 2014 (GMT -0600)
Gillette-Campbell County | Change Station
CLOSE
Current Station
Airport
Location: Gillette,
Elevation: 4364 ft
Nearby Weather Stations

Elev 4364 ft 44.34 °N, 105.54 °W | Updated 42 minutes ago

Clear
Clear
68 °F
Feels Like 68 °F
N
13
Wind Variable Wind from SSW

Today
High -- | Low -- °F
--% Chance of Precip.
Yesterday
High -- | Low -- °F
Precip. -- in
6:11 AM 7:59 PM
Waning Crescent, 22% visible
Pressure 29.57 in
Visibility 10.0 miles
Clouds Clear
Dew Point 48 °F
Humidity 49%
Rainfall 0.00 in
Snow Depth Not available.
UV 0 out of 12
Pollen 8.70 out of 12
Air Quality Not available.
Flu Activity Not available.
METAR KGCC 201053Z AUTO 21011KT 10SM CLR 20/09 A2975 RMK AO2 SLP013 T02000089

More Conditions Fewer Conditions

Pressure 29.57 in
Visibility 10.0 miles
Clouds Clear
Dew Point 48 °F
Humidity 49%
Rainfall 0.00 in
Snow Depth Not available.
UV 0 out of 12
Pollen 8.70 out of 12
Air Quality Not available.
Flu Activity Not available.
METAR KGCC 201053Z AUTO 21011KT 10SM CLR 20/09 A2975 RMK AO2 SLP013 T02000089

More Conditions Fewer Conditions

10-Day Weather Forecast

Almanac

Astronomy

Aug. 20, 2014 Rise Set
Actual Time 6:11 AM MDT 7:59 PM MDT
Civil Twilight 5:40 AM MDT 8:30 PM MDT
Nautical Twilight 5:02 AM MDT 9:08 PM MDT
Astronomical Twilight 4:20 AM MDT 9:49 PM MDT
Moon 1:49 AM MDT 4:51 PM MDT
Length of Visible Light 14h 50m
Length of Day
13h 48m
Tomorrow will be 2m 50s shorter.
Waning Crescent, 22% of the Moon is Illuminated
Today
Waning Crescent
Aug 25
New
Sep 2
First Quarter
Sep 8
Full
Sep 15
Last Quarter

Today's Extremes

State Highs State Lows

Community

WunderPhotos

Upload Photos

1,745,611 photos uploaded!

Nearby

Snow Depth

Station Depth Elevation
Casper Mountain 1 in 7850 ft
Reno Hill 0 in 8500 ft
Sand Lake 0 in 10050 ft
Sylvan Lake 0 in 8420 ft
Brooklyn Lake 0 in 10220 ft

Earthquake Activity

City Distance Mag. Time & Date
No recent earthquake activity has been reported nearby.
Minimum magnitude displayed is 2.5.

Coastal Water Temperatures

Place Temperature
No Stations Reporting

Nearby Weather Stations